Kure Harbour — 3EZL4 — position and weather

sailwx.info

Track history (hours):
 
Tides and Currents Weather Stations Pressure Air Temp Water Temp Dewpoint Dewpoint Depression Visibility Wind Speed Wind Dir Waves Ship Positions

Kure Harbour

Last reported at 2018-Jun-07 21:03 UTC. Time now 2018-Jun-19 02:23 UTC.
Position S 24°24' W 046°08'.
Warning: this ship's position is 11 days out of date.

Length 190 m; draft 6.1 m.

Type: Ship. MMSI: 357538000.

Date/timePositionNaut miles runAvg speedWind from/ knotsBaromVisibWave heightAir tempDewpointWater temp
2018-Jun-07 21:03S 24°24' W 046°08'114.6
2018-Jun-07 20:59S 24°24' W 046°09'713.6
2018-Jun-07 20:30S 24°20' W 046°15'714.0
2018-Jun-07 20:00S 24°15' W 046°20'713.2
2018-Jun-07 19:30S 24°08' W 046°22'612.5
2018-Jun-07 19:00S 24°02' W 046°21'4 8.2
2018-Jun-07 18:31S 23°59' W 046°18'  
2018-Jun-02 16:48S 23°58' W 046°18'0 0.0
2018-Jun-02 16:31S 23°58' W 046°18'0 0.0
2018-Jun-02 02:46S 23°58' W 046°18'0 0.0
2018-Jun-02 02:22S 23°58' W 046°18'0 0.0
2018-Jun-01 20:18S 23°58' W 046°18'1 3.6
2018-Jun-01 20:00S 23°59' W 046°17'4 7.2
2018-Jun-01 19:28S 24°02' W 046°21'2 5.2
2018-Jun-01 19:00S 24°04' W 046°22'2 4.3
2018-Jun-01 18:30S 24°06' W 046°23'3 5.8
2018-Jun-01 18:00S 24°09' W 046°22'3 6.4
2018-Jun-01 17:30S 24°12' W 046°21'4 7.9
2018-Jun-01 17:00S 24°13' W 046°16'1 1.3
2018-Jun-01 16:30S 24°12' W 046°16'0 0.0
2018-Jun-01 15:57S 24°12' W 046°16'0 0.0
2018-Jun-01 15:30S 24°12' W 046°16'0 0.0
2018-Jun-01 15:00S 24°12' W 046°16'0 0.0
2018-Jun-01 14:30S 24°12' W 046°16'0 0.0
2018-Jun-01 13:57S 24°12' W 046°16'0 0.0
2018-Jun-01 13:27S 24°12' W 046°16'0 0.0
2018-Jun-01 12:57S 24°12' W 046°16'0 0.0
2018-Jun-01 12:21S 24°12' W 046°16'0 0.0
2018-Jun-01 11:54S 24°12' W 046°16'0 0.0
2018-Jun-01 11:27S 24°12' W 046°16'0 0.0
2018-Jun-01 10:57S 24°12' W 046°16'0 0.0
2018-Jun-01 10:27S 24°12' W 046°16'0 0.1
2018-Jun-01 10:00S 24°12' W 046°16'0 0.0
2018-Jun-01 09:27S 24°12' W 046°16'0 0.1
2018-Jun-01 08:57S 24°12' W 046°16'0 0.1
2018-Jun-01 08:27S 24°12' W 046°16'0 0.1
2018-Jun-01 07:57S 24°12' W 046°16'0 0.0
2018-Jun-01 07:30S 24°12' W 046°16'0 0.0
2018-Jun-01 07:00S 24°12' W 046°16'0 0.0
2018-Jun-01 06:30S 24°12' W 046°16'0 0.0
2018-Jun-01 05:57S 24°12' W 046°16'0 0.0
2018-Jun-01 05:24S 24°12' W 046°16'0 0.0
2018-Jun-01 04:57S 24°12' W 046°16'0 0.0
2018-Jun-01 04:27S 24°12' W 046°16'0 0.0
2018-Jun-01 04:00S 24°12' W 046°16'0 0.0
2018-Jun-01 03:30S 24°12' W 046°16'0 0.0
2018-Jun-01 02:57S 24°12' W 046°16'0 0.0
2018-Jun-01 02:27S 24°12' W 046°16'0 0.0
2018-Jun-01 01:57S 24°12' W 046°16'0 0.0
2018-Jun-01 01:27S 24°12' W 046°16'0 0.0
2018-Jun-01 00:57S 24°12' W 046°16'0 0.0
2018-Jun-01 00:27S 24°12' W 046°16'0 0.0
2018-May-31 23:51S 24°12' W 046°16'0 0.0
2018-May-31 23:30S 24°12' W 046°16'0 0.0
2018-May-31 22:57S 24°12' W 046°16'0 0.0
2018-May-31 22:18S 24°12' W 046°16'0 0.0
2018-May-31 21:57S 24°12' W 046°16'0 0.1
2018-May-31 21:21S 24°12' W 046°16'0 0.1
2018-May-31 20:57S 24°12' W 046°16'0 0.0
2018-May-31 20:27S 24°12' W 046°16'0 0.0
2018-May-31 19:57S 24°12' W 046°16'0 0.0
2018-May-31 19:21S 24°12' W 046°16'0 0.1
2018-May-31 19:00S 24°12' W 046°16'0 0.1
2018-May-31 18:27S 24°12' W 046°16'0 0.0
2018-May-31 17:57S 24°12' W 046°16'0 0.0
2018-May-31 17:27S 24°12' W 046°16'0 0.0
2018-May-31 16:57S 24°12' W 046°16'0 0.0
2018-May-31 16:21S 24°12' W 046°16'0 0.0
2018-May-31 15:57S 24°12' W 046°16'0 0.0
2018-May-31 15:27S 24°12' W 046°16'0 0.0
2018-May-31 14:57S 24°12' W 046°16'0 0.0
2018-May-31 14:21S 24°12' W 046°16'0 0.0
2018-May-31 13:57S 24°12' W 046°16'0 0.0
2018-May-31 13:21S 24°12' W 046°16'0 0.0
2018-May-31 12:57S 24°12' W 046°16'0 0.0
2018-May-31 12:27S 24°12' W 046°16'0 0.0
2018-May-31 11:57S 24°12' W 046°16'0 0.1
2018-May-31 11:21S 24°12' W 046°16'0 0.0
2018-May-31 10:57S 24°12' W 046°16'0 0.0
2018-May-31 10:27S 24°12' W 046°16'0 0.1
2018-May-31 10:00S 24°12' W 046°16'0 0.1
2018-May-31 09:21S 24°12' W 046°16'0 0.1
2018-May-31 08:57S 24°12' W 046°16'0 0.1
2018-May-31 08:21S 24°12' W 046°16'0 0.1
2018-May-31 07:45S 24°12' W 046°16'0 0.0
2018-May-31 07:21S 24°12' W 046°16'0 0.0
2018-May-31 06:57S 24°12' W 046°16'0 0.0
2018-May-31 06:15S 24°12' W 046°16'0 0.0
2018-May-31 05:51S 24°12' W 046°16'0 0.0
2018-May-31 05:27S 24°12' W 046°16'0 0.0
2018-May-31 05:00S 24°12' W 046°16'0 0.0
2018-May-31 04:30S 24°12' W 046°16'0 0.0
2018-May-31 03:57S 24°12' W 046°16'0 0.0
2018-May-31 03:27S 24°12' W 046°16'0 0.0
2018-May-31 02:54S 24°12' W 046°16'0 0.0
2018-May-31 02:27S 24°12' W 046°16'0 0.0
2018-May-31 02:00S 24°12' W 046°16'0 0.0
2018-May-31 01:27S 24°12' W 046°16'0 0.0
2018-May-31 01:00S 24°12' W 046°16'0 0.0
2018-May-31 00:27S 24°12' W 046°16'0 0.0
2018-May-30 23:57S 24°12' W 046°16'0 0.0
2018-May-30 23:21S 24°12' W 046°16'0 0.0
2018-May-30 22:57S 24°12' W 046°16'0 0.0
2018-May-30 22:30S 24°12' W 046°16'0 0.0
2018-May-30 21:57S 24°12' W 046°16'0 0.0
2018-May-30 21:30S 24°12' W 046°16'0 0.0
2018-May-30 21:00S 24°12' W 046°16'0 0.0
2018-May-30 20:30S 24°12' W 046°16'0 0.0
2018-May-30 20:00S 24°12' W 046°16'0 0.0
2018-May-30 19:24S 24°12' W 046°16'0 0.0
2018-May-30 18:57S 24°12' W 046°16'0 0.0
2018-May-30 18:30S 24°12' W 046°16'0 0.0
2018-May-30 17:48S 24°12' W 046°16'0 0.0
2018-May-30 17:30S 24°12' W 046°16'0 0.0
2018-May-30 16:57S 24°12' W 046°16'0 0.0
2018-May-30 16:27S 24°12' W 046°16'0 0.0
2018-May-30 16:00S 24°12' W 046°16'0 0.0
2018-May-30 15:30S 24°12' W 046°16'0 0.0
2018-May-30 15:00S 24°12' W 046°16'0 0.0
2018-May-30 14:30S 24°12' W 046°16'0 0.0
2018-May-30 13:57S 24°12' W 046°16'0 0.0
2018-May-30 13:27S 24°12' W 046°16'0 0.0
2018-May-30 12:45S 24°12' W 046°16'0 0.1
2018-May-30 12:27S 24°12' W 046°16'0 0.0
2018-May-30 11:57S 24°12' W 046°16'0 0.0
2018-May-30 11:27S 24°12' W 046°16'0 0.0
2018-May-30 10:57S 24°12' W 046°16'0 0.0
2018-May-30 10:24S 24°12' W 046°16'0 0.0
2018-May-30 09:57S 24°12' W 046°16'0 0.0
2018-May-30 09:15S 24°12' W 046°16'0 0.0
2018-May-30 08:57S 24°12' W 046°16'0 0.0
2018-May-30 08:18S 24°12' W 046°16'0 0.0
2018-May-30 07:57S 24°12' W 046°16'0 0.0
2018-May-30 07:15S 24°12' W 046°16'0 0.0
2018-May-30 06:51S 24°12' W 046°16'0 0.0
2018-May-30 06:27S 24°12' W 046°16'0 0.0
2018-May-30 05:57S 24°12' W 046°16'0 0.0
2018-May-30 05:21S 24°12' W 046°16'0 0.0
2018-May-30 04:57S 24°12' W 046°16'0 0.0
2018-May-30 04:27S 24°12' W 046°16'0 0.0
2018-May-30 03:57S 24°12' W 046°16'0 0.0
2018-May-30 03:27S 24°12' W 046°16'0 0.0
2018-May-30 02:57S 24°12' W 046°16'0 0.0
2018-May-30 02:27S 24°12' W 046°16'0 0.0
2018-May-30 02:00S 24°12' W 046°16'0 0.0
2018-May-30 01:30S 24°12' W 046°16'0 0.0
2018-May-30 00:57S 24°12' W 046°16'0 0.0
2018-May-30 00:27S 24°12' W 046°16'0 0.0
2018-May-29 23:57S 24°12' W 046°16'0 0.0
2018-May-29 23:27S 24°12' W 046°16'0 0.0
2018-May-29 22:57S 24°12' W 046°16'0 0.0
2018-May-29 22:21S 24°12' W 046°16'0 0.0
2018-May-29 21:57S 24°12' W 046°16'0 0.0
2018-May-29 21:30S 24°12' W 046°16'0 0.0
2018-May-29 20:51S 24°12' W 046°16'0 0.0
2018-May-29 20:27S 24°12' W 046°16'0 0.0
2018-May-29 19:57S 24°12' W 046°16'0 0.0
2018-May-29 19:27S 24°12' W 046°16'0 0.0
2018-May-29 18:57S 24°12' W 046°16'0 0.0
2018-May-29 18:27S 24°12' W 046°16'0 0.0
2018-May-29 17:57S 24°12' W 046°16'0 0.0
2018-May-29 17:27S 24°12' W 046°16'0 0.0
2018-May-29 16:57S 24°12' W 046°16'0 0.0
2018-May-29 16:27S 24°12' W 046°16'0 0.0
2018-May-29 16:00S 24°12' W 046°16'0 0.0
2018-May-29 15:30S 24°12' W 046°16'0 0.0
2018-May-29 14:51S 24°12' W 046°16'0 0.0
2018-May-29 14:27S 24°12' W 046°16'0 0.0
2018-May-29 13:51S 24°12' W 046°16'0 0.0
2018-May-29 13:27S 24°12' W 046°16'0 0.0
2018-May-29 12:54S 24°12' W 046°16'0 0.0
2018-May-29 12:27S 24°12' W 046°16'0 0.0
2018-May-29 12:00S 24°12' W 046°16'0 0.0
2018-May-29 11:30S 24°12' W 046°16'0 0.0
2018-May-29 11:00S 24°12' W 046°16'0 0.0
2018-May-29 10:27S 24°12' W 046°16'0 0.0
2018-May-29 09:57S 24°12' W 046°16'0 0.0
2018-May-29 09:21S 24°12' W 046°16'0 0.0
2018-May-29 08:57S 24°12' W 046°16'0 0.0
2018-May-29 08:27S 24°12' W 046°16'0 0.0
2018-May-29 07:39S 24°12' W 046°16'0 0.0
2018-May-29 07:27S 24°12' W 046°16'0 0.0
2018-May-29 06:51S 24°12' W 046°16'0 0.0
2018-May-29 06:15S 24°12' W 046°16'0 0.0
2018-May-29 05:57S 24°12' W 046°16'0 0.0
2018-May-29 05:27S 24°12' W 046°16'0 0.0
2018-May-29 04:54S 24°12' W 046°16'0 0.0
2018-May-29 04:21S 24°12' W 046°16'0 0.0
2018-May-29 04:00S 24°12' W 046°16'0 0.0
2018-May-29 03:21S 24°12' W 046°16'0 0.0
2018-May-29 02:57S 24°12' W 046°16'0 0.0
2018-May-29 02:27S 24°12' W 046°16'0 0.0
2018-May-29 02:00S 24°12' W 046°16'0 0.0
2018-May-29 01:27S 24°12' W 046°16'0 0.0
2018-May-29 00:57S 24°12' W 046°16'0 0.0
2018-May-29 00:15S 24°12' W 046°16'0 0.0
2018-May-28 23:57S 24°12' W 046°16'0 0.0
2018-May-28 23:15S 24°12' W 046°16'0 0.0
2018-May-28 22:54S 24°12' W 046°16'0 0.0
2018-May-28 22:27S 24°12' W 046°16'0 0.0
2018-May-28 21:48S 24°12' W 046°16'0 0.0
2018-May-28 21:27S 24°12' W 046°16'  
Track history (hours):
 
Tides and Currents Weather Stations Pressure Air Temp Water Temp Dewpoint Dewpoint Depression Visibility Wind Speed Wind Dir Waves Ship Positions

Kure Harbour

Last reported at 2018-Jun-07 21:03 UTC. Time now 2018-Jun-19 02:23 UTC.
Position S 24°24' W 046°08'.
Warning: this ship's position is 11 days out of date.

Length 190 m; draft 6.1 m.

Type: Ship. MMSI: 357538000.

Date/timePositionNaut miles runAvg speedWind from/ knotsBaromVisibWave heightAir tempDewpointWater temp
2018-Jun-07 21:03S 24°24' W 046°08'114.6
2018-Jun-07 20:59S 24°24' W 046°09'713.6
2018-Jun-07 20:30S 24°20' W 046°15'714.0
2018-Jun-07 20:00S 24°15' W 046°20'713.2
2018-Jun-07 19:30S 24°08' W 046°22'612.5
2018-Jun-07 19:00S 24°02' W 046°21'4 8.2
2018-Jun-07 18:31S 23°59' W 046°18'  
2018-Jun-02 16:48S 23°58' W 046°18'0 0.0
2018-Jun-02 16:31S 23°58' W 046°18'0 0.0
2018-Jun-02 02:46S 23°58' W 046°18'0 0.0
2018-Jun-02 02:22S 23°58' W 046°18'0 0.0
2018-Jun-01 20:18S 23°58' W 046°18'1 3.6
2018-Jun-01 20:00S 23°59' W 046°17'4 7.2
2018-Jun-01 19:28S 24°02' W 046°21'2 5.2
2018-Jun-01 19:00S 24°04' W 046°22'2 4.3
2018-Jun-01 18:30S 24°06' W 046°23'3 5.8
2018-Jun-01 18:00S 24°09' W 046°22'3 6.4
2018-Jun-01 17:30S 24°12' W 046°21'4 7.9
2018-Jun-01 17:00S 24°13' W 046°16'1 1.3
2018-Jun-01 16:30S 24°12' W 046°16'0 0.0
2018-Jun-01 15:57S 24°12' W 046°16'0 0.0
2018-Jun-01 15:30S 24°12' W 046°16'0 0.0
2018-Jun-01 15:00S 24°12' W 046°16'0 0.0
2018-Jun-01 14:30S 24°12' W 046°16'0 0.0
2018-Jun-01 13:57S 24°12' W 046°16'0 0.0
2018-Jun-01 13:27S 24°12' W 046°16'0 0.0
2018-Jun-01 12:57S 24°12' W 046°16'0 0.0
2018-Jun-01 12:21S 24°12' W 046°16'0 0.0
2018-Jun-01 11:54S 24°12' W 046°16'0 0.0
2018-Jun-01 11:27S 24°12' W 046°16'0 0.0
2018-Jun-01 10:57S 24°12' W 046°16'0 0.0
2018-Jun-01 10:27S 24°12' W 046°16'0 0.1
2018-Jun-01 10:00S 24°12' W 046°16'0 0.0
2018-Jun-01 09:27S 24°12' W 046°16'0 0.1
2018-Jun-01 08:57S 24°12' W 046°16'0 0.1
2018-Jun-01 08:27S 24°12' W 046°16'0 0.1
2018-Jun-01 07:57S 24°12' W 046°16'0 0.0
2018-Jun-01 07:30S 24°12' W 046°16'0 0.0
2018-Jun-01 07:00S 24°12' W 046°16'0 0.0
2018-Jun-01 06:30S 24°12' W 046°16'0 0.0
2018-Jun-01 05:57S 24°12' W 046°16'0 0.0
2018-Jun-01 05:24S 24°12' W 046°16'0 0.0
2018-Jun-01 04:57S 24°12' W 046°16'0 0.0
2018-Jun-01 04:27S 24°12' W 046°16'0 0.0
2018-Jun-01 04:00S 24°12' W 046°16'0 0.0
2018-Jun-01 03:30S 24°12' W 046°16'0 0.0
2018-Jun-01 02:57S 24°12' W 046°16'0 0.0
2018-Jun-01 02:27S 24°12' W 046°16'0 0.0
2018-Jun-01 01:57S 24°12' W 046°16'0 0.0
2018-Jun-01 01:27S 24°12' W 046°16'0 0.0
2018-Jun-01 00:57S 24°12' W 046°16'0 0.0
2018-Jun-01 00:27S 24°12' W 046°16'0 0.0
2018-May-31 23:51S 24°12' W 046°16'0 0.0
2018-May-31 23:30S 24°12' W 046°16'0 0.0
2018-May-31 22:57S 24°12' W 046°16'0 0.0
2018-May-31 22:18S 24°12' W 046°16'0 0.0
2018-May-31 21:57S 24°12' W 046°16'0 0.1
2018-May-31 21:21S 24°12' W 046°16'0 0.1
2018-May-31 20:57S 24°12' W 046°16'0 0.0
2018-May-31 20:27S 24°12' W 046°16'0 0.0
2018-May-31 19:57S 24°12' W 046°16'0 0.0
2018-May-31 19:21S 24°12' W 046°16'0 0.1
2018-May-31 19:00S 24°12' W 046°16'0 0.1
2018-May-31 18:27S 24°12' W 046°16'0 0.0
2018-May-31 17:57S 24°12' W 046°16'0 0.0
2018-May-31 17:27S 24°12' W 046°16'0 0.0
2018-May-31 16:57S 24°12' W 046°16'0 0.0
2018-May-31 16:21S 24°12' W 046°16'0 0.0
2018-May-31 15:57S 24°12' W 046°16'0 0.0
2018-May-31 15:27S 24°12' W 046°16'0 0.0
2018-May-31 14:57S 24°12' W 046°16'0 0.0
2018-May-31 14:21S 24°12' W 046°16'0 0.0
2018-May-31 13:57S 24°12' W 046°16'0 0.0
2018-May-31 13:21S 24°12' W 046°16'0 0.0
2018-May-31 12:57S 24°12' W 046°16'0 0.0
2018-May-31 12:27S 24°12' W 046°16'0 0.0
2018-May-31 11:57S 24°12' W 046°16'0 0.1
2018-May-31 11:21S 24°12' W 046°16'0 0.0
2018-May-31 10:57S 24°12' W 046°16'0 0.0
2018-May-31 10:27S 24°12' W 046°16'0 0.1
2018-May-31 10:00S 24°12' W 046°16'0 0.1
2018-May-31 09:21S 24°12' W 046°16'0 0.1
2018-May-31 08:57S 24°12' W 046°16'0 0.1
2018-May-31 08:21S 24°12' W 046°16'0 0.1
2018-May-31 07:45S 24°12' W 046°16'0 0.0
2018-May-31 07:21S 24°12' W 046°16'0 0.0
2018-May-31 06:57S 24°12' W 046°16'0 0.0
2018-May-31 06:15S 24°12' W 046°16'0 0.0
2018-May-31 05:51S 24°12' W 046°16'0 0.0
2018-May-31 05:27S 24°12' W 046°16'0 0.0
2018-May-31 05:00S 24°12' W 046°16'0 0.0
2018-May-31 04:30S 24°12' W 046°16'0 0.0
2018-May-31 03:57S 24°12' W 046°16'0 0.0
2018-May-31 03:27S 24°12' W 046°16'0 0.0
2018-May-31 02:54S 24°12' W 046°16'0 0.0
2018-May-31 02:27S 24°12' W 046°16'0 0.0
2018-May-31 02:00S 24°12' W 046°16'0 0.0
2018-May-31 01:27S 24°12' W 046°16'0 0.0
2018-May-31 01:00S 24°12' W 046°16'0 0.0
2018-May-31 00:27S 24°12' W 046°16'0 0.0
2018-May-30 23:57S 24°12' W 046°16'0 0.0
2018-May-30 23:21S 24°12' W 046°16'0 0.0
2018-May-30 22:57S 24°12' W 046°16'0 0.0
2018-May-30 22:30S 24°12' W 046°16'0 0.0
2018-May-30 21:57S 24°12' W 046°16'0 0.0
2018-May-30 21:30S 24°12' W 046°16'0 0.0
2018-May-30 21:00S 24°12' W 046°16'0 0.0
2018-May-30 20:30S 24°12' W 046°16'0 0.0
2018-May-30 20:00S 24°12' W 046°16'0 0.0
2018-May-30 19:24S 24°12' W 046°16'0 0.0
2018-May-30 18:57S 24°12' W 046°16'0 0.0
2018-May-30 18:30S 24°12' W 046°16'0 0.0
2018-May-30 17:48S 24°12' W 046°16'0 0.0
2018-May-30 17:30S 24°12' W 046°16'0 0.0
2018-May-30 16:57S 24°12' W 046°16'0 0.0
2018-May-30 16:27S 24°12' W 046°16'0 0.0
2018-May-30 16:00S 24°12' W 046°16'0 0.0
2018-May-30 15:30S 24°12' W 046°16'0 0.0
2018-May-30 15:00S 24°12' W 046°16'0 0.0
2018-May-30 14:30S 24°12' W 046°16'0 0.0
2018-May-30 13:57S 24°12' W 046°16'0 0.0
2018-May-30 13:27S 24°12' W 046°16'0 0.0
2018-May-30 12:45S 24°12' W 046°16'0 0.1
2018-May-30 12:27S 24°12' W 046°16'0 0.0
2018-May-30 11:57S 24°12' W 046°16'0 0.0
2018-May-30 11:27S 24°12' W 046°16'0 0.0
2018-May-30 10:57S 24°12' W 046°16'0 0.0
2018-May-30 10:24S 24°12' W 046°16'0 0.0
2018-May-30 09:57S 24°12' W 046°16'0 0.0
2018-May-30 09:15S 24°12' W 046°16'0 0.0
2018-May-30 08:57S 24°12' W 046°16'0 0.0
2018-May-30 08:18S 24°12' W 046°16'0 0.0
2018-May-30 07:57S 24°12' W 046°16'0 0.0
2018-May-30 07:15S 24°12' W 046°16'0 0.0
2018-May-30 06:51S 24°12' W 046°16'0 0.0
2018-May-30 06:27S 24°12' W 046°16'0 0.0
2018-May-30 05:57S 24°12' W 046°16'0 0.0
2018-May-30 05:21S 24°12' W 046°16'0 0.0
2018-May-30 04:57S 24°12' W 046°16'0 0.0
2018-May-30 04:27S 24°12' W 046°16'0 0.0
2018-May-30 03:57S 24°12' W 046°16'0 0.0
2018-May-30 03:27S 24°12' W 046°16'0 0.0
2018-May-30 02:57S 24°12' W 046°16'0 0.0
2018-May-30 02:27S 24°12' W 046°16'0 0.0
2018-May-30 02:00S 24°12' W 046°16'0 0.0
2018-May-30 01:30S 24°12' W 046°16'0 0.0
2018-May-30 00:57S 24°12' W 046°16'0 0.0
2018-May-30 00:27S 24°12' W 046°16'0 0.0
2018-May-29 23:57S 24°12' W 046°16'0 0.0
2018-May-29 23:27S 24°12' W 046°16'0 0.0
2018-May-29 22:57S 24°12' W 046°16'0 0.0
2018-May-29 22:21S 24°12' W 046°16'0 0.0
2018-May-29 21:57S 24°12' W 046°16'0 0.0
2018-May-29 21:30S 24°12' W 046°16'0 0.0
2018-May-29 20:51S 24°12' W 046°16'0 0.0
2018-May-29 20:27S 24°12' W 046°16'0 0.0
2018-May-29 19:57S 24°12' W 046°16'0 0.0
2018-May-29 19:27S 24°12' W 046°16'0 0.0
2018-May-29 18:57S 24°12' W 046°16'0 0.0
2018-May-29 18:27S 24°12' W 046°16'0 0.0
2018-May-29 17:57S 24°12' W 046°16'0 0.0
2018-May-29 17:27S 24°12' W 046°16'0 0.0
2018-May-29 16:57S 24°12' W 046°16'0 0.0
2018-May-29 16:27S 24°12' W 046°16'0 0.0
2018-May-29 16:00S 24°12' W 046°16'0 0.0
2018-May-29 15:30S 24°12' W 046°16'0 0.0
2018-May-29 14:51S 24°12' W 046°16'0 0.0
2018-May-29 14:27S 24°12' W 046°16'0 0.0
2018-May-29 13:51S 24°12' W 046°16'0 0.0
2018-May-29 13:27S 24°12' W 046°16'0 0.0
2018-May-29 12:54S 24°12' W 046°16'0 0.0
2018-May-29 12:27S 24°12' W 046°16'0 0.0
2018-May-29 12:00S 24°12' W 046°16'0 0.0
2018-May-29 11:30S 24°12' W 046°16'0 0.0
2018-May-29 11:00S 24°12' W 046°16'0 0.0
2018-May-29 10:27S 24°12' W 046°16'0 0.0
2018-May-29 09:57S 24°12' W 046°16'0 0.0
2018-May-29 09:21S 24°12' W 046°16'0 0.0
2018-May-29 08:57S 24°12' W 046°16'0 0.0
2018-May-29 08:27S 24°12' W 046°16'0 0.0
2018-May-29 07:39S 24°12' W 046°16'0 0.0
2018-May-29 07:27S 24°12' W 046°16'0 0.0
2018-May-29 06:51S 24°12' W 046°16'0 0.0
2018-May-29 06:15S 24°12' W 046°16'0 0.0
2018-May-29 05:57S 24°12' W 046°16'0 0.0
2018-May-29 05:27S 24°12' W 046°16'0 0.0
2018-May-29 04:54S 24°12' W 046°16'0 0.0
2018-May-29 04:21S 24°12' W 046°16'0 0.0
2018-May-29 04:00S 24°12' W 046°16'0 0.0
2018-May-29 03:21S 24°12' W 046°16'0 0.0
2018-May-29 02:57S 24°12' W 046°16'0 0.0
2018-May-29 02:27S 24°12' W 046°16'0 0.0
2018-May-29 02:00S 24°12' W 046°16'0 0.0
2018-May-29 01:27S 24°12' W 046°16'0 0.0
2018-May-29 00:57S 24°12' W 046°16'0 0.0
2018-May-29 00:15S 24°12' W 046°16'0 0.0
2018-May-28 23:57S 24°12' W 046°16'0 0.0
2018-May-28 23:15S 24°12' W 046°16'0 0.0
2018-May-28 22:54S 24°12' W 046°16'0 0.0
2018-May-28 22:27S 24°12' W 046°16'0 0.0
2018-May-28 21:48S 24°12' W 046°16'0 0.0
2018-May-28 21:27S 24°12' W 046°16'  

Dump ship's entire track history